createdAt,value
2023-04-27T00:00:36.929Z,8.39
2023-04-27T00:03:06.156Z,8.37
2023-04-27T00:05:39.039Z,8.39
2023-04-27T00:08:06.962Z,8.21
2023-04-27T00:10:33.712Z,8.07
2023-04-27T00:13:01.214Z,7.91
2023-04-27T00:15:28.002Z,7.84
2023-04-27T00:18:01.538Z,7.85
2023-04-27T00:20:28.406Z,7.74
2023-04-27T00:22:54.751Z,7.57
2023-04-27T00:25:21.298Z,7.50
2023-04-27T00:28:03.624Z,7.48
2023-04-27T00:30:31.588Z,7.67
2023-04-27T00:32:57.980Z,7.77
2023-04-27T00:35:24.566Z,7.72
2023-04-27T00:37:50.933Z,7.72
2023-04-27T00:40:17.363Z,7.82
2023-04-27T00:42:43.876Z,7.68
2023-04-27T00:45:10.885Z,7.50
2023-04-27T00:47:37.575Z,7.54
2023-04-27T00:50:08.336Z,7.55
2023-04-27T00:52:36.623Z,7.85
2023-04-27T00:55:04.958Z,7.75
2023-04-27T00:57:33.377Z,7.71
2023-04-27T01:00:06.575Z,7.65
2023-04-27T01:02:33.533Z,7.61
2023-04-27T01:05:01.302Z,7.68
2023-04-27T01:07:27.796Z,7.81
2023-04-27T01:09:54.269Z,7.89
2023-04-27T01:12:20.940Z,7.55
2023-04-27T01:14:47.346Z,7.53
2023-04-27T01:17:14.192Z,7.43
2023-04-27T01:19:41.088Z,7.34
2023-04-27T01:22:07.570Z,7.31
2023-04-27T01:24:34.030Z,7.24
2023-04-27T01:27:01.571Z,7.27
2023-04-27T01:29:28.177Z,7.28
2023-04-27T01:31:54.558Z,7.19
2023-04-27T01:34:21.015Z,6.99
2023-04-27T01:36:47.370Z,6.89
2023-04-27T01:39:13.968Z,6.79
2023-04-27T01:41:40.822Z,6.82
2023-04-27T01:44:07.276Z,6.76
2023-04-27T01:46:33.752Z,6.65
2023-04-27T01:49:00.302Z,6.56
2023-04-27T01:51:27.588Z,6.60
2023-04-27T01:53:54.039Z,6.54
2023-04-27T01:56:20.499Z,6.47
2023-04-27T01:58:46.911Z,6.47
2023-04-27T02:01:13.435Z,6.40
2023-04-27T02:03:39.945Z,6.21
2023-04-27T02:06:06.724Z,6.23
2023-04-27T02:08:34.420Z,6.10
2023-04-27T02:11:00.878Z,6.16
2023-04-27T02:13:27.255Z,6.20
2023-04-27T02:15:53.692Z,6.18
2023-04-27T02:18:20.184Z,6.21
2023-04-27T02:20:46.687Z,5.99
2023-04-27T02:23:13.185Z,5.85
2023-04-27T02:25:42.874Z,5.75
2023-04-27T02:28:09.227Z,5.89
2023-04-27T02:30:37.141Z,5.82
2023-04-27T02:33:03.652Z,5.80
2023-04-27T02:35:32.117Z,5.77
2023-04-27T02:37:58.937Z,5.67
2023-04-27T02:40:26.045Z,5.62
2023-04-27T02:42:52.417Z,5.58
2023-04-27T02:45:19.163Z,5.44
2023-04-27T02:47:46.181Z,5.44
2023-04-27T02:50:13.677Z,5.38
2023-04-27T02:52:40.049Z,5.41
2023-04-27T02:55:07.027Z,5.35
2023-04-27T02:57:33.484Z,5.28
2023-04-27T02:59:59.860Z,5.30
2023-04-27T03:02:26.879Z,5.23
2023-04-27T03:04:56.937Z,5.24
2023-04-27T03:07:23.342Z,5.17
2023-04-27T03:09:49.747Z,5.20
2023-04-27T03:12:16.174Z,5.16
2023-04-27T03:14:42.627Z,5.13
2023-04-27T03:17:08.970Z,5.08
2023-04-27T03:19:35.378Z,5.13
2023-04-27T03:22:01.747Z,5.08
2023-04-27T03:24:28.205Z,5.21
2023-04-27T03:26:54.590Z,5.14
2023-04-27T03:29:21.091Z,5.24
2023-04-27T03:31:47.584Z,5.13
2023-04-27T03:34:13.953Z,5.01
2023-04-27T03:36:40.354Z,5.00
2023-04-27T03:39:06.927Z,5.03
2023-04-27T03:41:33.324Z,4.97
2023-04-27T03:43:59.694Z,4.88
2023-04-27T03:46:26.227Z,4.94
2023-04-27T03:48:52.668Z,4.96
2023-04-27T03:51:19.118Z,4.80
2023-04-27T03:53:45.477Z,4.76
2023-04-27T03:56:11.972Z,4.72
2023-04-27T03:58:38.385Z,4.83
2023-04-27T04:01:04.808Z,4.80
2023-04-27T04:03:31.299Z,4.80
2023-04-27T04:05:57.782Z,4.69
2023-04-27T04:08:24.187Z,4.63
2023-04-27T04:10:50.775Z,4.67
2023-04-27T04:13:18.372Z,4.66
2023-04-27T04:15:44.768Z,4.75
2023-04-27T04:18:11.306Z,4.66
2023-04-27T04:20:37.818Z,4.53
2023-04-27T04:23:04.242Z,4.62
2023-04-27T04:25:32.051Z,4.60
2023-04-27T04:27:58.474Z,4.72
2023-04-27T04:30:24.890Z,4.56
2023-04-27T04:32:51.338Z,4.55
2023-04-27T04:35:19.617Z,4.48
2023-04-27T04:37:46.806Z,4.49
2023-04-27T04:40:13.974Z,4.53
2023-04-27T04:42:40.432Z,4.56
2023-04-27T04:45:07.467Z,4.60
2023-04-27T04:47:34.209Z,4.63
2023-04-27T04:50:01.083Z,4.79
2023-04-27T04:52:27.531Z,4.75
2023-04-27T04:54:54.249Z,4.75
2023-04-27T04:57:21.232Z,4.83
2023-04-27T04:59:47.592Z,4.91
2023-04-27T05:02:13.962Z,4.90
2023-04-27T05:04:40.467Z,4.97
2023-04-27T05:07:06.994Z,5.00
2023-04-27T05:09:33.440Z,5.10
2023-04-27T05:12:01.991Z,5.16
2023-04-27T05:14:28.440Z,5.21
2023-04-27T05:16:54.891Z,5.25
2023-04-27T05:19:21.577Z,5.27
2023-04-27T05:21:48.206Z,5.41
2023-04-27T05:24:14.648Z,5.38
2023-04-27T05:26:43.077Z,5.58
2023-04-27T05:29:09.622Z,5.67
2023-04-27T05:31:36.167Z,5.72
2023-04-27T05:34:02.969Z,5.82
2023-04-27T05:36:29.537Z,5.82
2023-04-27T05:38:56.225Z,5.90
2023-04-27T05:41:23.720Z,5.97
2023-04-27T05:43:50.220Z,6.02
2023-04-27T05:46:16.812Z,6.13
2023-04-27T05:48:43.279Z,6.20
2023-04-27T05:51:09.716Z,6.31
2023-04-27T05:53:36.168Z,6.37
2023-04-27T05:56:04.345Z,6.47
2023-04-27T05:58:30.722Z,6.51
2023-04-27T06:00:57.516Z,6.61
2023-04-27T06:03:24.111Z,6.68
2023-04-27T06:05:58.856Z,6.76
2023-04-27T06:08:25.907Z,6.84
2023-04-27T06:10:52.455Z,6.85
2023-04-27T06:13:18.996Z,6.99
2023-04-27T06:15:46.186Z,7.10
2023-04-27T06:18:13.116Z,7.12
2023-04-27T06:20:39.720Z,7.19
2023-04-27T06:23:06.168Z,7.39
2023-04-27T06:25:32.587Z,7.39
2023-04-27T06:27:58.992Z,7.50
2023-04-27T06:32:36.108Z,7.67
2023-04-27T06:35:02.527Z,7.65
2023-04-27T06:37:28.968Z,7.65
2023-04-27T06:39:56.134Z,7.98
2023-04-27T06:42:22.556Z,8.02
2023-04-27T06:44:49.017Z,8.02
2023-04-27T06:47:15.554Z,8.06
2023-04-27T06:49:41.936Z,8.16
2023-04-27T06:52:08.288Z,8.22
2023-04-27T06:54:34.640Z,8.30
2023-04-27T06:57:01.778Z,8.40
2023-04-27T06:59:28.363Z,8.50
2023-04-27T07:01:54.926Z,8.63
2023-04-27T07:04:21.496Z,8.70
2023-04-27T07:06:48.144Z,8.73
2023-04-27T07:09:26.451Z,8.94
2023-04-27T07:11:53.243Z,9.15
2023-04-27T07:14:19.634Z,9.38
2023-04-27T07:16:47.197Z,9.38
2023-04-27T07:19:13.823Z,9.38
2023-04-27T07:21:41.127Z,9.44
2023-04-27T07:24:07.904Z,9.53
2023-04-27T07:26:34.370Z,9.67
2023-04-27T07:29:01.728Z,9.83
2023-04-27T07:31:33.183Z,9.95
2023-04-27T07:34:00.522Z,10.18
2023-04-27T07:36:27.569Z,10.24
2023-04-27T07:38:53.942Z,10.38
2023-04-27T07:41:20.342Z,10.46
2023-04-27T07:43:48.231Z,11.47
2023-04-27T07:46:14.878Z,11.88
2023-04-27T07:48:42.123Z,11.93
2023-04-27T07:51:08.518Z,12.78
2023-04-27T07:53:35.923Z,13.03
2023-04-27T07:56:03.167Z,13.93
2023-04-27T07:58:29.571Z,14.83
2023-04-27T08:00:56.048Z,14.22
2023-04-27T08:03:22.852Z,14.18
2023-04-27T08:05:49.982Z,13.75
2023-04-27T08:08:17.051Z,13.36
2023-04-27T08:10:43.496Z,13.64
2023-04-27T08:13:10.024Z,14.11
2023-04-27T08:15:37.268Z,14.69
2023-04-27T08:18:04.004Z,15.11
2023-04-27T08:20:30.685Z,15.62
2023-04-27T08:22:57.248Z,15.61
2023-04-27T08:25:23.664Z,14.59
2023-04-27T08:27:50.105Z,14.91
2023-04-27T08:30:16.893Z,15.03
2023-04-27T08:32:43.390Z,15.38
2023-04-27T08:35:10.172Z,14.91
2023-04-27T08:37:36.575Z,14.67
2023-04-27T08:40:07.917Z,15.80
2023-04-27T08:42:34.362Z,15.07
2023-04-27T08:45:00.907Z,14.44
2023-04-27T08:47:39.028Z,14.62
2023-04-27T08:50:09.093Z,15.69
2023-04-27T08:52:37.690Z,15.90
2023-04-27T08:55:04.903Z,16.58
2023-04-27T08:57:32.336Z,16.64
2023-04-27T09:00:11.706Z,17.38
2023-04-27T09:02:44.761Z,18.10
2023-04-27T09:05:23.065Z,16.78
2023-04-27T09:08:00.811Z,17.02
2023-04-27T09:10:29.371Z,16.47
2023-04-27T09:12:57.958Z,17.48
2023-04-27T09:15:24.803Z,18.26
2023-04-27T09:17:57.664Z,18.25
2023-04-27T09:20:26.758Z,18.13
2023-04-27T09:22:55.391Z,18.20
2023-04-27T09:25:26.471Z,17.77
2023-04-27T09:27:53.258Z,17.48
2023-04-27T09:30:20.625Z,18.09
2023-04-27T09:32:53.588Z,17.40
2023-04-27T09:35:25.671Z,16.13
2023-04-27T09:37:53.304Z,16.22
2023-04-27T09:40:23.458Z,16.79
2023-04-27T09:42:51.223Z,16.54
2023-04-27T09:45:19.092Z,16.28
2023-04-27T09:47:46.322Z,16.76
2023-04-27T09:50:14.137Z,15.22
2023-04-27T09:52:40.835Z,15.07
2023-04-27T09:55:11.613Z,14.55
2023-04-27T09:57:41.304Z,15.63
2023-04-27T10:00:37.418Z,16.55
2023-04-27T10:03:18.262Z,16.99
2023-04-27T10:06:15.844Z,17.41
2023-04-27T10:08:42.380Z,18.58
2023-04-27T10:11:16.236Z,17.57
2023-04-27T10:13:56.229Z,17.04
2023-04-27T10:16:22.886Z,15.87
2023-04-27T10:18:54.699Z,16.73
2023-04-27T10:21:21.726Z,17.37
2023-04-27T10:23:50.876Z,18.84
2023-04-27T10:26:28.015Z,18.87
2023-04-27T10:29:08.944Z,18.41
2023-04-27T10:31:36.114Z,18.39
2023-04-27T10:34:08.497Z,17.83
2023-04-27T10:36:39.030Z,17.21
2023-04-27T10:39:36.171Z,17.03
2023-04-27T10:42:11.427Z,17.74
2023-04-27T10:44:38.825Z,17.64
2023-04-27T10:47:16.695Z,17.34
2023-04-27T10:49:43.302Z,17.99
2023-04-27T10:52:09.955Z,19.14
2023-04-27T10:54:37.404Z,19.50
2023-04-27T10:57:06.411Z,20.41
2023-04-27T10:59:33.981Z,19.87
2023-04-27T11:02:00.592Z,20.20
2023-04-27T11:04:38.424Z,19.73
2023-04-27T11:07:04.946Z,19.06
2023-04-27T11:09:31.468Z,19.87
2023-04-27T11:11:58.037Z,20.79
2023-04-27T11:14:24.486Z,21.11
2023-04-27T11:16:51.160Z,20.39
2023-04-27T11:19:17.585Z,20.28
2023-04-27T11:21:44.363Z,17.86
2023-04-27T11:24:12.174Z,17.65
2023-04-27T11:26:40.563Z,17.44
2023-04-27T11:29:12.546Z,18.16
2023-04-27T11:31:49.154Z,18.06
2023-04-27T11:34:24.552Z,15.38
2023-04-27T11:39:38.575Z,16.20
2023-04-27T11:42:17.040Z,17.38
2023-04-27T11:44:49.523Z,18.22
2023-04-27T11:47:21.720Z,19.45
2023-04-27T11:49:55.215Z,19.95
2023-04-27T11:52:35.370Z,19.85
2023-04-27T11:55:04.007Z,20.28
2023-04-27T11:57:32.937Z,18.32
2023-04-27T12:00:15.145Z,15.80
2023-04-27T12:02:43.243Z,17.96
2023-04-27T12:05:12.049Z,18.16
2023-04-27T12:07:52.802Z,17.23
2023-04-27T12:10:19.555Z,18.15
2023-04-27T12:12:47.632Z,19.53
2023-04-27T12:15:14.148Z,19.94
2023-04-27T12:17:40.711Z,20.63
2023-04-27T12:20:07.801Z,21.92
2023-04-27T12:22:34.408Z,21.71
2023-04-27T12:25:01.577Z,22.27
2023-04-27T12:27:28.432Z,21.72
2023-04-27T12:29:55.083Z,20.86
2023-04-27T12:32:21.563Z,19.91
2023-04-27T12:34:47.940Z,19.59
2023-04-27T12:37:14.295Z,19.84
2023-04-27T12:39:40.788Z,19.16
2023-04-27T12:42:07.163Z,20.24
2023-04-27T12:44:33.566Z,20.89
2023-04-27T12:46:59.939Z,21.04
2023-04-27T12:49:26.680Z,21.89
2023-04-27T12:51:54.066Z,21.55
2023-04-27T12:54:20.453Z,20.86
2023-04-27T12:56:47.156Z,20.32
2023-04-27T12:59:13.547Z,18.88
2023-04-27T13:01:40.290Z,19.18
2023-04-27T13:04:07.472Z,18.34
2023-04-27T13:06:35.565Z,19.01
2023-04-27T13:09:02.546Z,19.91
2023-04-27T13:11:29.198Z,20.31
2023-04-27T13:13:55.685Z,18.89
2023-04-27T13:16:24.997Z,18.10
2023-04-27T13:18:52.393Z,18.89
2023-04-27T13:21:19.266Z,19.34
2023-04-27T13:23:46.887Z,18.87
2023-04-27T13:26:14.677Z,20.63
2023-04-27T13:28:41.993Z,20.48
2023-04-27T13:31:08.609Z,18.54
2023-04-27T13:33:41.429Z,19.97
2023-04-27T13:36:12.286Z,21.13
2023-04-27T13:38:39.812Z,20.04
2023-04-27T13:41:06.960Z,19.22
2023-04-27T13:43:33.436Z,19.41
2023-04-27T13:46:01.595Z,20.48
2023-04-27T13:48:28.799Z,20.84
2023-04-27T13:50:58.229Z,20.49
2023-04-27T13:53:27.221Z,22.43
2023-04-27T13:55:55.308Z,21.95
2023-04-27T13:58:25.076Z,21.17
2023-04-27T14:00:52.955Z,21.35
2023-04-27T14:03:19.858Z,21.60
2023-04-27T14:05:48.818Z,21.17
2023-04-27T14:08:15.260Z,21.64
2023-04-27T14:10:41.826Z,22.68
2023-04-27T14:13:08.393Z,22.97
2023-04-27T14:15:37.237Z,23.05
2023-04-27T14:18:06.547Z,22.30
2023-04-27T14:20:34.538Z,22.00
2023-04-27T14:23:02.159Z,20.71
2023-04-27T14:25:32.676Z,20.76
2023-04-27T14:28:03.529Z,21.30
2023-04-27T14:30:31.841Z,21.07
2023-04-27T14:32:58.681Z,20.93
2023-04-27T14:35:25.515Z,20.00
2023-04-27T14:37:52.597Z,19.80
2023-04-27T14:40:19.913Z,19.20
2023-04-27T14:42:47.056Z,19.97
2023-04-27T14:45:13.569Z,19.38
2023-04-27T14:47:40.004Z,19.57
2023-04-27T14:50:06.958Z,19.49
2023-04-27T14:52:33.390Z,19.84
2023-04-27T14:55:00.725Z,19.97
2023-04-27T14:57:27.703Z,19.97
2023-04-27T14:59:54.234Z,20.05
2023-04-27T15:02:20.669Z,19.59
2023-04-27T15:04:47.378Z,19.15
2023-04-27T15:07:13.803Z,19.43
2023-04-27T15:09:40.403Z,19.23
2023-04-27T15:12:07.947Z,19.45
2023-04-27T15:14:34.426Z,19.57
2023-04-27T15:17:01.192Z,19.62
2023-04-27T15:19:27.817Z,20.05
2023-04-27T15:21:54.430Z,19.90
2023-04-27T15:24:20.942Z,20.07
2023-04-27T15:26:48.334Z,20.55
2023-04-27T15:29:15.006Z,20.82
2023-04-27T15:31:41.710Z,20.72
2023-04-27T15:34:08.278Z,20.26
2023-04-27T15:36:34.758Z,19.94
2023-04-27T15:39:01.281Z,19.60
2023-04-27T15:41:27.650Z,19.52
2023-04-27T15:43:54.120Z,19.32
2023-04-27T15:46:20.786Z,19.35
2023-04-27T15:48:47.298Z,19.31
2023-04-27T15:51:13.681Z,19.20
2023-04-27T15:53:41.095Z,18.95
2023-04-27T15:56:07.626Z,18.89
2023-04-27T15:58:34.030Z,18.99
2023-04-27T16:01:00.763Z,19.12
2023-04-27T16:03:27.276Z,18.73
2023-04-27T16:05:53.792Z,18.44
2023-04-27T16:08:20.255Z,18.47
2023-04-27T16:10:46.825Z,18.44
2023-04-27T16:13:13.225Z,18.58
2023-04-27T16:15:39.666Z,18.37
2023-04-27T16:18:06.369Z,17.98
2023-04-27T16:20:34.242Z,17.54
2023-04-27T16:23:03.185Z,17.58
2023-04-27T16:25:29.651Z,17.44
2023-04-27T16:27:58.921Z,17.53
2023-04-27T16:30:25.551Z,17.65
2023-04-27T16:32:52.751Z,17.44
2023-04-27T16:35:19.174Z,17.43
2023-04-27T16:37:45.687Z,17.50
2023-04-27T16:40:12.485Z,17.57
2023-04-27T16:42:38.920Z,17.55
2023-04-27T16:45:07.171Z,17.58
2023-04-27T16:47:35.056Z,17.57
2023-04-27T16:50:01.577Z,17.64
2023-04-27T16:52:28.194Z,17.26
2023-04-27T16:54:54.644Z,17.13
2023-04-27T16:57:21.158Z,17.00
2023-04-27T16:59:47.593Z,17.02
2023-04-27T17:02:23.825Z,17.04
2023-04-27T17:04:51.356Z,16.96
2023-04-27T17:07:17.768Z,16.86
2023-04-27T17:09:44.382Z,16.86
2023-04-27T17:12:13.141Z,16.82
2023-04-27T17:14:42.056Z,16.72
2023-04-27T17:17:08.495Z,16.51
2023-04-27T17:19:35.018Z,16.42
2023-04-27T17:22:01.477Z,16.38
2023-04-27T17:24:28.106Z,16.21
2023-04-27T17:26:54.566Z,16.04
2023-04-27T17:29:21.634Z,16.10
2023-04-27T17:31:49.245Z,16.16
2023-04-27T17:34:16.407Z,16.04
2023-04-27T17:36:42.790Z,15.97
2023-04-27T17:39:09.234Z,15.91
2023-04-27T17:41:37.059Z,15.89
2023-04-27T17:44:03.961Z,15.86
2023-04-27T17:46:30.560Z,15.87
2023-04-27T17:48:57.193Z,15.80
2023-04-27T17:51:23.591Z,15.73
2023-04-27T17:53:50.103Z,15.79
2023-04-27T17:57:53.601Z,15.74
2023-04-27T18:00:21.584Z,15.70
2023-04-27T18:02:49.691Z,15.72
2023-04-27T18:05:17.202Z,15.63
2023-04-27T18:07:46.071Z,15.52
2023-04-27T18:10:12.872Z,15.39
2023-04-27T18:12:39.297Z,15.34
2023-04-27T18:15:08.588Z,15.32
2023-04-27T18:17:36.351Z,15.18
2023-04-27T18:20:09.610Z,15.20
2023-04-27T18:22:38.404Z,15.15
2023-04-27T18:25:05.407Z,15.17
2023-04-27T18:27:32.906Z,15.21
2023-04-27T18:29:59.448Z,15.28
2023-04-27T18:32:25.969Z,15.22
2023-04-27T18:34:52.387Z,15.21
2023-04-27T18:37:19.125Z,15.11
2023-04-27T18:39:45.684Z,15.03
2023-04-27T18:42:12.117Z,15.10
2023-04-27T18:44:38.574Z,14.95
2023-04-27T18:47:06.083Z,14.87
2023-04-27T18:49:32.438Z,14.77
2023-04-27T18:51:58.887Z,14.52
2023-04-27T18:54:25.284Z,14.40
2023-04-27T18:56:53.578Z,14.35
2023-04-27T18:59:20.361Z,14.21
2023-04-27T19:01:46.880Z,14.15
2023-04-27T19:04:14.499Z,14.21
2023-04-27T19:06:41.054Z,14.15
2023-04-27T19:09:09.090Z,14.05
2023-04-27T19:11:35.915Z,14.04
2023-04-27T19:14:02.532Z,13.95
2023-04-27T19:16:29.004Z,13.93
2023-04-27T19:18:55.485Z,13.91
2023-04-27T19:21:21.924Z,13.74
2023-04-27T19:23:48.353Z,13.77
2023-04-27T19:26:14.905Z,13.80
2023-04-27T19:28:41.390Z,13.80
2023-04-27T19:31:08.017Z,13.78
2023-04-27T19:33:34.481Z,13.77
2023-04-27T19:36:00.879Z,13.87
2023-04-27T19:38:27.475Z,13.68
2023-04-27T19:40:53.910Z,13.78
2023-04-27T19:43:20.915Z,13.81
2023-04-27T19:45:49.118Z,13.71
2023-04-27T19:48:16.078Z,13.60
2023-04-27T19:50:43.281Z,13.60
2023-04-27T19:53:10.671Z,13.64
2023-04-27T19:55:37.152Z,13.54
2023-04-27T19:58:03.615Z,13.58
2023-04-27T20:00:30.360Z,13.53
2023-04-27T20:02:57.008Z,13.53
2023-04-27T20:05:23.843Z,13.53
2023-04-27T20:07:50.405Z,13.48
2023-04-27T20:10:16.935Z,13.58
2023-04-27T20:12:55.388Z,13.40
2023-04-27T20:15:23.157Z,13.29
2023-04-27T20:17:49.594Z,13.37
2023-04-27T20:20:16.145Z,13.29
2023-04-27T20:22:42.752Z,13.34
2023-04-27T20:25:09.525Z,13.27
2023-04-27T20:27:36.065Z,13.30
2023-04-27T20:30:02.523Z,13.30
2023-04-27T20:32:28.966Z,13.36
2023-04-27T20:34:55.362Z,13.22
2023-04-27T20:37:23.207Z,13.25
2023-04-27T20:39:49.569Z,13.27
2023-04-27T20:42:16.149Z,13.13
2023-04-27T20:44:42.553Z,13.15
2023-04-27T20:47:09.055Z,13.12
2023-04-27T20:49:35.868Z,13.15
2023-04-27T20:52:02.975Z,13.22
2023-04-27T20:54:32.648Z,13.12
2023-04-27T20:57:01.393Z,13.16
2023-04-27T20:59:27.804Z,13.15
2023-04-27T21:01:54.222Z,13.13
2023-04-27T21:04:21.101Z,13.16
2023-04-27T21:06:47.888Z,13.20
2023-04-27T21:09:14.265Z,13.22
2023-04-27T21:11:40.877Z,13.19
2023-04-27T21:14:07.345Z,13.26
2023-04-27T21:16:33.799Z,13.27
2023-04-27T21:19:00.373Z,13.26
2023-04-27T21:21:26.957Z,13.20
2023-04-27T21:24:04.249Z,13.18
2023-04-27T21:26:34.310Z,13.15
2023-04-27T21:29:01.357Z,13.09
2023-04-27T21:31:28.015Z,13.12
2023-04-27T21:33:54.529Z,13.02
2023-04-27T21:36:21.040Z,13.13
2023-04-27T21:38:47.467Z,13.12
2023-04-27T21:41:14.362Z,13.03
2023-04-27T21:43:42.071Z,13.02
2023-04-27T21:46:09.262Z,12.96
2023-04-27T21:48:36.198Z,13.00
2023-04-27T21:51:02.814Z,13.09
2023-04-27T21:53:32.044Z,12.96
2023-04-27T21:56:00.541Z,12.98
2023-04-27T21:58:30.397Z,12.91
2023-04-27T22:01:00.123Z,12.98
2023-04-27T22:03:28.770Z,12.95
2023-04-27T22:05:57.480Z,12.95
2023-04-27T22:08:24.013Z,13.03
2023-04-27T22:10:50.880Z,13.00
2023-04-27T22:13:19.235Z,12.99
2023-04-27T22:15:47.259Z,12.93
2023-04-27T22:18:16.886Z,12.91
2023-04-27T22:20:43.611Z,12.81
2023-04-27T22:23:10.706Z,12.91
2023-04-27T22:25:37.484Z,12.85
2023-04-27T22:28:03.913Z,12.79
2023-04-27T22:30:30.953Z,12.72
2023-04-27T22:32:57.861Z,12.78
2023-04-27T22:35:27.664Z,12.78
2023-04-27T22:37:59.376Z,12.71
2023-04-27T22:40:26.164Z,12.79
2023-04-27T22:42:53.488Z,12.68
2023-04-27T22:45:19.901Z,12.67
2023-04-27T22:47:47.667Z,12.79
2023-04-27T22:50:14.102Z,12.64
2023-04-27T22:52:42.342Z,12.67
2023-04-27T22:55:10.048Z,12.71
2023-04-27T22:57:38.007Z,12.78
2023-04-27T23:00:05.517Z,12.79
2023-04-27T23:02:32.530Z,12.89
2023-04-27T23:04:59.233Z,12.85
2023-04-27T23:07:25.651Z,12.93
2023-04-27T23:09:52.739Z,12.98
2023-04-27T23:12:20.668Z,12.95
2023-04-27T23:14:47.132Z,12.98
2023-04-27T23:17:15.304Z,13.02
2023-04-27T23:19:41.929Z,12.91
2023-04-27T23:22:08.573Z,12.72
2023-04-27T23:24:38.763Z,12.75
2023-04-27T23:27:05.189Z,12.88
2023-04-27T23:29:31.729Z,12.92
2023-04-27T23:32:03.565Z,12.96
2023-04-27T23:34:35.130Z,12.99
2023-04-27T23:37:01.690Z,13.07
2023-04-27T23:39:28.549Z,13.06
2023-04-27T23:41:55.023Z,13.05
2023-04-27T23:44:21.459Z,13.07
2023-04-27T23:46:47.896Z,13.06
2023-04-27T23:49:23.228Z,13.03
2023-04-27T23:51:50.010Z,12.96
2023-04-27T23:54:16.607Z,12.88
2023-04-27T23:56:43.194Z,12.75
